sensor_id;sensor_type;location;lat;lon;timestamp;pressure;altitude;pressure_sealevel;temperature;humidity
62952;BME280;52163;52.212;-1.002;2023-05-01T00:00:32;100661.49;;;12.07;90.01
62952;BME280;52163;52.212;-1.002;2023-05-01T00:02:57;100663.52;;;12.03;90.43
62952;BME280;52163;52.212;-1.002;2023-05-01T00:05:22;100664.62;;;12.00;90.43
62952;BME280;52163;52.212;-1.002;2023-05-01T00:07:48;100664.02;;;11.95;90.13
62952;BME280;52163;52.212;-1.002;2023-05-01T00:10:13;100663.02;;;11.88;89.94
62952;BME280;52163;52.212;-1.002;2023-05-01T00:12:39;100657.34;;;11.80;89.97
62952;BME280;52163;52.212;-1.002;2023-05-01T00:15:04;100660.30;;;11.70;89.87
62952;BME280;52163;52.212;-1.002;2023-05-01T00:17:30;100656.00;;;11.59;90.11
62952;BME280;52163;52.212;-1.002;2023-05-01T00:19:56;100655.76;;;11.48;90.39
62952;BME280;52163;52.212;-1.002;2023-05-01T00:22:21;100652.52;;;11.41;90.94
62952;BME280;52163;52.212;-1.002;2023-05-01T00:24:46;100645.21;;;11.33;91.02
62952;BME280;52163;52.212;-1.002;2023-05-01T00:27:13;100640.79;;;11.27;91.57
62952;BME280;52163;52.212;-1.002;2023-05-01T00:29:38;100635.49;;;11.24;91.83
62952;BME280;52163;52.212;-1.002;2023-05-01T00:32:04;100632.99;;;11.21;91.74
62952;BME280;52163;52.212;-1.002;2023-05-01T00:34:29;100629.32;;;11.18;91.60
62952;BME280;52163;52.212;-1.002;2023-05-01T00:36:55;100627.83;;;11.13;91.91
62952;BME280;52163;52.212;-1.002;2023-05-01T00:39:20;100621.14;;;11.10;91.55
62952;BME280;52163;52.212;-1.002;2023-05-01T00:41:45;100619.79;;;11.03;91.39
62952;BME280;52163;52.212;-1.002;2023-05-01T00:44:11;100618.72;;;10.94;91.41
62952;BME280;52163;52.212;-1.002;2023-05-01T00:46:36;100617.80;;;10.86;91.38
62952;BME280;52163;52.212;-1.002;2023-05-01T00:49:02;100612.70;;;10.77;91.52
62952;BME280;52163;52.212;-1.002;2023-05-01T00:51:28;100612.73;;;10.70;92.07
62952;BME280;52163;52.212;-1.002;2023-05-01T00:53:54;100609.66;;;10.65;92.48
62952;BME280;52163;52.212;-1.002;2023-05-01T00:56:20;100609.29;;;10.63;92.94
62952;BME280;52163;52.212;-1.002;2023-05-01T00:58:46;100603.96;;;10.60;93.09
62952;BME280;52163;52.212;-1.002;2023-05-01T01:01:13;100604.69;;;10.59;93.03
62952;BME280;52163;52.212;-1.002;2023-05-01T01:03:39;100605.63;;;10.56;92.92
62952;BME280;52163;52.212;-1.002;2023-05-01T01:11:16;100601.98;;;10.32;93.10
62952;BME280;52163;52.212;-1.002;2023-05-01T01:13:55;100599.91;;;10.25;93.13
62952;BME280;52163;52.212;-1.002;2023-05-01T01:16:35;100605.71;;;10.20;93.86
62952;BME280;52163;52.212;-1.002;2023-05-01T01:19:14;100603.73;;;10.17;93.90
62952;BME280;52163;52.212;-1.002;2023-05-01T01:21:47;100603.48;;;10.15;94.26
62952;BME280;52163;52.212;-1.002;2023-05-01T01:34:54;100588.56;;;10.14;95.48
62952;BME280;52163;52.212;-1.002;2023-05-01T01:37:27;100593.58;;;10.15;95.56
62952;BME280;52163;52.212;-1.002;2023-05-01T01:40:15;100588.09;;;10.19;95.54
62952;BME280;52163;52.212;-1.002;2023-05-01T01:42:54;100588.81;;;10.25;96.22
62952;BME280;52163;52.212;-1.002;2023-05-01T01:45:21;100585.27;;;10.35;97.58
62952;BME280;52163;52.212;-1.002;2023-05-01T01:47:48;100582.02;;;10.45;97.11
62952;BME280;52163;52.212;-1.002;2023-05-01T01:50:15;100571.88;;;10.53;97.56
62952;BME280;52163;52.212;-1.002;2023-05-01T01:52:42;100572.16;;;10.60;96.71
62952;BME280;52163;52.212;-1.002;2023-05-01T01:55:10;100569.21;;;10.62;96.23
62952;BME280;52163;52.212;-1.002;2023-05-01T01:57:36;100565.80;;;10.63;96.09
62952;BME280;52163;52.212;-1.002;2023-05-01T02:00:03;100562.66;;;10.65;96.82
62952;BME280;52163;52.212;-1.002;2023-05-01T02:02:33;100557.48;;;10.66;96.27
62952;BME280;52163;52.212;-1.002;2023-05-01T02:05:00;100552.89;;;10.66;96.34
62952;BME280;52163;52.212;-1.002;2023-05-01T02:07:25;100552.23;;;10.65;96.32
62952;BME280;52163;52.212;-1.002;2023-05-01T02:09:52;100552.11;;;10.65;96.14
62952;BME280;52163;52.212;-1.002;2023-05-01T02:12:19;100553.59;;;10.66;96.92
62952;BME280;52163;52.212;-1.002;2023-05-01T02:14:45;100552.38;;;10.69;96.56
62952;BME280;52163;52.212;-1.002;2023-05-01T02:17:12;100554.11;;;10.72;96.87
62952;BME280;52163;52.212;-1.002;2023-05-01T02:19:39;100549.71;;;10.72;96.34
62952;BME280;52163;52.212;-1.002;2023-05-01T02:22:06;100545.20;;;10.70;96.40
62952;BME280;52163;52.212;-1.002;2023-05-01T02:24:32;100546.30;;;10.70;96.46
62952;BME280;52163;52.212;-1.002;2023-05-01T02:27:01;100541.70;;;10.67;96.42
62952;BME280;52163;52.212;-1.002;2023-05-01T02:29:28;100540.63;;;10.65;96.49
62952;BME280;52163;52.212;-1.002;2023-05-01T02:31:53;100539.60;;;10.64;96.41
62952;BME280;52163;52.212;-1.002;2023-05-01T02:34:19;100539.81;;;10.64;97.03
62952;BME280;52163;52.212;-1.002;2023-05-01T02:36:44;100539.08;;;10.64;97.12
62952;BME280;52163;52.212;-1.002;2023-05-01T02:39:09;100534.44;;;10.68;97.13
62952;BME280;52163;52.212;-1.002;2023-05-01T02:41:35;100535.39;;;10.72;97.41
62952;BME280;52163;52.212;-1.002;2023-05-01T02:44:02;100537.27;;;10.76;97.19
62952;BME280;52163;52.212;-1.002;2023-05-01T02:46:29;100536.21;;;10.79;97.06
62952;BME280;52163;52.212;-1.002;2023-05-01T02:48:56;100535.05;;;10.81;97.08
62952;BME280;52163;52.212;-1.002;2023-05-01T02:51:22;100527.02;;;10.82;96.72
62952;BME280;52163;52.212;-1.002;2023-05-01T02:53:48;100527.70;;;10.82;96.62
62952;BME280;52163;52.212;-1.002;2023-05-01T02:56:14;100522.28;;;10.82;96.46
62952;BME280;52163;52.212;-1.002;2023-05-01T02:58:40;100517.30;;;10.79;96.56
62952;BME280;52163;52.212;-1.002;2023-05-01T03:01:06;100515.02;;;10.79;96.81
62952;BME280;52163;52.212;-1.002;2023-05-01T03:03:31;100515.32;;;10.77;96.99
62952;BME280;52163;52.212;-1.002;2023-05-01T03:05:57;100511.30;;;10.73;96.86
62952;BME280;52163;52.212;-1.002;2023-05-01T03:08:22;100502.05;;;10.69;96.74
62952;BME280;52163;52.212;-1.002;2023-05-01T03:10:47;100500.24;;;10.63;96.92
62952;BME280;52163;52.212;-1.002;2023-05-01T03:13:13;100499.60;;;10.56;97.16
62952;BME280;52163;52.212;-1.002;2023-05-01T03:15:38;100496.56;;;10.48;96.89
62952;BME280;52163;52.212;-1.002;2023-05-01T03:18:03;100497.48;;;10.38;96.90
62952;BME280;52163;52.212;-1.002;2023-05-01T03:20:29;100497.19;;;10.31;97.40
62952;BME280;52163;52.212;-1.002;2023-05-01T03:22:55;100501.58;;;10.23;97.39
62952;BME280;52163;52.212;-1.002;2023-05-01T03:25:20;100501.78;;;10.13;97.17
62952;BME280;52163;52.212;-1.002;2023-05-01T03:27:46;100500.84;;;10.05;97.75
62952;BME280;52163;52.212;-1.002;2023-05-01T03:30:11;100502.73;;;9.99;97.74
62952;BME280;52163;52.212;-1.002;2023-05-01T03:32:37;100501.11;;;9.97;98.35
62952;BME280;52163;52.212;-1.002;2023-05-01T03:35:02;100500.11;;;9.96;98.53
62952;BME280;52163;52.212;-1.002;2023-05-01T03:37:28;100500.52;;;9.95;98.54
62952;BME280;52163;52.212;-1.002;2023-05-01T03:39:53;100503.24;;;9.94;99.02
62952;BME280;52163;52.212;-1.002;2023-05-01T03:42:18;100501.92;;;9.92;98.30
62952;BME280;52163;52.212;-1.002;2023-05-01T03:44:44;100507.95;;;9.92;98.51
62952;BME280;52163;52.212;-1.002;2023-05-01T03:47:09;100504.70;;;9.90;98.15
62952;BME280;52163;52.212;-1.002;2023-05-01T03:49:34;100505.44;;;9.86;97.95
62952;BME280;52163;52.212;-1.002;2023-05-01T03:52:00;100508.92;;;9.84;98.20
62952;BME280;52163;52.212;-1.002;2023-05-01T03:54:25;100510.92;;;9.83;98.23
62952;BME280;52163;52.212;-1.002;2023-05-01T03:56:51;100509.23;;;9.84;98.67
62952;BME280;52163;52.212;-1.002;2023-05-01T03:59:16;100504.86;;;9.87;98.80
62952;BME280;52163;52.212;-1.002;2023-05-01T04:01:42;100503.39;;;9.91;98.98
62952;BME280;52163;52.212;-1.002;2023-05-01T04:04:08;100505.52;;;9.94;98.83
62952;BME280;52163;52.212;-1.002;2023-05-01T04:06:33;100502.78;;;9.96;99.05
62952;BME280;52163;52.212;-1.002;2023-05-01T04:09:00;100501.26;;;9.94;98.95
62952;BME280;52163;52.212;-1.002;2023-05-01T04:11:25;100503.54;;;9.92;98.54
62952;BME280;52163;52.212;-1.002;2023-05-01T04:13:51;100500.96;;;9.87;98.60
62952;BME280;52163;52.212;-1.002;2023-05-01T04:16:16;100495.90;;;9.83;99.08
62952;BME280;52163;52.212;-1.002;2023-05-01T04:18:42;100493.39;;;9.78;98.65
62952;BME280;52163;52.212;-1.002;2023-05-01T04:21:07;100494.03;;;9.76;99.05
62952;BME280;52163;52.212;-1.002;2023-05-01T04:23:32;100499.02;;;9.75;99.60
62952;BME280;52163;52.212;-1.002;2023-05-01T04:25:58;100495.95;;;9.73;99.09
62952;BME280;52163;52.212;-1.002;2023-05-01T04:28:23;100501.36;;;9.74;99.91
62952;BME280;52163;52.212;-1.002;2023-05-01T04:30:48;100503.67;;;9.77;99.83
62952;BME280;52163;52.212;-1.002;2023-05-01T04:33:14;100498.29;;;9.81;100.00
62952;BME280;52163;52.212;-1.002;2023-05-01T04:35:40;100499.72;;;9.84;99.99
62952;BME280;52163;52.212;-1.002;2023-05-01T04:38:06;100499.67;;;9.88;100.00
62952;BME280;52163;52.212;-1.002;2023-05-01T04:40:31;100500.80;;;9.90;99.47
62952;BME280;52163;52.212;-1.002;2023-05-01T04:42:56;100498.69;;;9.90;99.42
62952;BME280;52163;52.212;-1.002;2023-05-01T04:45:22;100500.16;;;9.92;99.55
62952;BME280;52163;52.212;-1.002;2023-05-01T04:47:47;100498.35;;;9.93;99.52
62952;BME280;52163;52.212;-1.002;2023-05-01T04:50:12;100505.05;;;9.93;98.90
62952;BME280;52163;52.212;-1.002;2023-05-01T04:52:38;100510.25;;;9.94;99.47
62952;BME280;52163;52.212;-1.002;2023-05-01T04:55:04;100509.00;;;9.98;99.68
62952;BME280;52163;52.212;-1.002;2023-05-01T04:57:29;100515.08;;;10.02;99.91
62952;BME280;52163;52.212;-1.002;2023-05-01T04:59:54;100519.10;;;10.09;99.87
62952;BME280;52163;52.212;-1.002;2023-05-01T05:02:20;100521.05;;;10.15;99.83
62952;BME280;52163;52.212;-1.002;2023-05-01T05:04:45;100525.70;;;10.21;99.40
62952;BME280;52163;52.212;-1.002;2023-05-01T05:07:11;100530.29;;;10.26;99.62
62952;BME280;52163;52.212;-1.002;2023-05-01T05:09:36;100530.66;;;10.32;99.42
62952;BME280;52163;52.212;-1.002;2023-05-01T05:12:02;100530.42;;;10.36;98.92
62952;BME280;52163;52.212;-1.002;2023-05-01T05:14:30;100530.96;;;10.40;98.82
62952;BME280;52163;52.212;-1.002;2023-05-01T05:16:55;100527.91;;;10.44;98.32
62952;BME280;52163;52.212;-1.002;2023-05-01T05:19:21;100531.92;;;10.48;98.29
62952;BME280;52163;52.212;-1.002;2023-05-01T05:21:46;100535.94;;;10.51;98.34
62952;BME280;52163;52.212;-1.002;2023-05-01T05:24:12;100532.94;;;10.57;98.18
62952;BME280;52163;52.212;-1.002;2023-05-01T05:26:37;100532.31;;;10.65;98.00
62952;BME280;52163;52.212;-1.002;2023-05-01T05:29:03;100531.02;;;10.72;97.59
62952;BME280;52163;52.212;-1.002;2023-05-01T05:31:28;100534.41;;;10.77;97.45
62952;BME280;52163;52.212;-1.002;2023-05-01T05:33:53;100532.77;;;10.81;97.21
62952;BME280;52163;52.212;-1.002;2023-05-01T05:36:19;100531.84;;;10.84;97.03
62952;BME280;52163;52.212;-1.002;2023-05-01T05:38:44;100534.45;;;10.85;96.63
62952;BME280;52163;52.212;-1.002;2023-05-01T05:41:09;100532.90;;;10.84;96.35
62952;BME280;52163;52.212;-1.002;2023-05-01T05:43:35;100538.45;;;10.83;95.94
62952;BME280;52163;52.212;-1.002;2023-05-01T05:46:01;100539.59;;;10.82;95.74
62952;BME280;52163;52.212;-1.002;2023-05-01T05:48:26;100539.79;;;10.84;96.02
62952;BME280;52163;52.212;-1.002;2023-05-01T05:50:51;100539.73;;;10.91;96.06
62952;BME280;52163;52.212;-1.002;2023-05-01T05:53:20;100542.50;;;11.01;96.04
62952;BME280;52163;52.212;-1.002;2023-05-01T05:55:45;100544.98;;;11.12;95.84
62952;BME280;52163;52.212;-1.002;2023-05-01T05:58:11;100547.69;;;11.26;95.94
62952;BME280;52163;52.212;-1.002;2023-05-01T06:00:38;100545.66;;;11.38;95.28
62952;BME280;52163;52.212;-1.002;2023-05-01T06:03:03;100543.38;;;11.46;94.52
62952;BME280;52163;52.212;-1.002;2023-05-01T06:05:29;100545.06;;;11.54;94.23
62952;BME280;52163;52.212;-1.002;2023-05-01T06:07:54;100540.98;;;11.56;93.73
62952;BME280;52163;52.212;-1.002;2023-05-01T06:10:19;100542.06;;;11.59;93.60
62952;BME280;52163;52.212;-1.002;2023-05-01T06:12:45;100539.94;;;11.62;93.12
62952;BME280;52163;52.212;-1.002;2023-05-01T06:15:12;100542.75;;;11.68;93.06
62952;BME280;52163;52.212;-1.002;2023-05-01T06:17:44;100544.16;;;11.76;92.91
62952;BME280;52163;52.212;-1.002;2023-05-01T06:20:09;100540.54;;;11.88;92.79
62952;BME280;52163;52.212;-1.002;2023-05-01T06:22:34;100536.65;;;11.99;92.32
62952;BME280;52163;52.212;-1.002;2023-05-01T06:25:00;100537.01;;;12.13;92.00
62952;BME280;52163;52.212;-1.002;2023-05-01T06:27:25;100543.63;;;12.28;91.57
62952;BME280;52163;52.212;-1.002;2023-05-01T06:29:51;100544.63;;;12.35;90.76
62952;BME280;52163;52.212;-1.002;2023-05-01T06:32:16;100540.52;;;12.35;90.25
62952;BME280;52163;52.212;-1.002;2023-05-01T06:34:41;100544.43;;;12.32;89.83
62952;BME280;52163;52.212;-1.002;2023-05-01T06:37:06;100544.90;;;12.28;89.53
62952;BME280;52163;52.212;-1.002;2023-05-01T06:39:32;100544.94;;;12.24;89.66
62952;BME280;52163;52.212;-1.002;2023-05-01T06:41:57;100547.38;;;12.25;89.48
62952;BME280;52163;52.212;-1.002;2023-05-01T06:44:23;100549.38;;;12.27;89.34
62952;BME280;52163;52.212;-1.002;2023-05-01T06:46:48;100553.55;;;12.31;89.02
62952;BME280;52163;52.212;-1.002;2023-05-01T06:49:13;100553.64;;;12.32;88.95
62952;BME280;52163;52.212;-1.002;2023-05-01T06:51:39;100557.38;;;12.32;88.79
62952;BME280;52163;52.212;-1.002;2023-05-01T06:54:04;100561.35;;;12.33;88.90
62952;BME280;52163;52.212;-1.002;2023-05-01T06:56:29;100563.99;;;12.34;88.70
62952;BME280;52163;52.212;-1.002;2023-05-01T06:58:56;100560.56;;;12.32;88.64
62952;BME280;52163;52.212;-1.002;2023-05-01T07:01:21;100561.43;;;12.32;88.69
62952;BME280;52163;52.212;-1.002;2023-05-01T07:03:47;100564.44;;;12.35;88.57
62952;BME280;52163;52.212;-1.002;2023-05-01T07:06:12;100565.59;;;12.36;88.55
62952;BME280;52163;52.212;-1.002;2023-05-01T07:08:38;100566.98;;;12.39;88.68
62952;BME280;52163;52.212;-1.002;2023-05-01T07:11:03;100568.13;;;12.43;88.56
62952;BME280;52163;52.212;-1.002;2023-05-01T07:13:28;100568.02;;;12.45;88.34
62952;BME280;52163;52.212;-1.002;2023-05-01T07:15:54;100570.59;;;12.46;88.32
62952;BME280;52163;52.212;-1.002;2023-05-01T07:18:19;100571.23;;;12.47;88.29
62952;BME280;52163;52.212;-1.002;2023-05-01T07:20:44;100575.09;;;12.51;88.40
62952;BME280;52163;52.212;-1.002;2023-05-01T07:23:09;100574.86;;;12.52;88.26
62952;BME280;52163;52.212;-1.002;2023-05-01T07:25:35;100580.10;;;12.53;88.48
62952;BME280;52163;52.212;-1.002;2023-05-01T07:28:05;100584.23;;;12.54;88.65
62952;BME280;52163;52.212;-1.002;2023-05-01T07:30:32;100587.27;;;12.54;88.50
62952;BME280;52163;52.212;-1.002;2023-05-01T07:32:57;100591.13;;;12.60;88.82
62952;BME280;52163;52.212;-1.002;2023-05-01T07:35:23;100593.62;;;12.70;88.63
62952;BME280;52163;52.212;-1.002;2023-05-01T07:37:48;100592.94;;;12.83;88.26
62952;BME280;52163;52.212;-1.002;2023-05-01T07:40:15;100590.57;;;12.96;88.24
62952;BME280;52163;52.212;-1.002;2023-05-01T07:42:41;100590.98;;;13.14;88.02
62952;BME280;52163;52.212;-1.002;2023-05-01T07:45:06;100588.92;;;13.33;87.02
62952;BME280;52163;52.212;-1.002;2023-05-01T07:47:33;100592.80;;;13.57;86.76
62952;BME280;52163;52.212;-1.002;2023-05-01T07:49:58;100585.77;;;13.78;86.17
62952;BME280;52163;52.212;-1.002;2023-05-01T07:52:25;100581.73;;;13.95;85.74
62952;BME280;52163;52.212;-1.002;2023-05-01T07:54:50;100579.20;;;14.10;85.08
62952;BME280;52163;52.212;-1.002;2023-05-01T07:57:15;100588.35;;;14.26;83.95
62952;BME280;52163;52.212;-1.002;2023-05-01T07:59:40;100583.08;;;14.37;83.46
62952;BME280;52163;52.212;-1.002;2023-05-01T08:02:06;100583.34;;;14.47;82.79
62952;BME280;52163;52.212;-1.002;2023-05-01T08:04:31;100583.19;;;14.57;82.09
62952;BME280;52163;52.212;-1.002;2023-05-01T08:06:56;100586.09;;;14.61;81.37
62952;BME280;52163;52.212;-1.002;2023-05-01T08:09:22;100589.52;;;14.62;80.94
62952;BME280;52163;52.212;-1.002;2023-05-01T08:11:47;100584.22;;;14.64;80.59
62952;BME280;52163;52.212;-1.002;2023-05-01T08:14:12;100582.48;;;14.71;80.59
62952;BME280;52163;52.212;-1.002;2023-05-01T08:16:38;100588.57;;;14.82;80.44
62952;BME280;52163;52.212;-1.002;2023-05-01T08:19:03;100584.92;;;14.93;79.37
62952;BME280;52163;52.212;-1.002;2023-05-01T08:21:28;100587.05;;;15.07;78.98
62952;BME280;52163;52.212;-1.002;2023-05-01T08:23:54;100584.95;;;15.27;78.75
62952;BME280;52163;52.212;-1.002;2023-05-01T08:26:19;100585.39;;;15.44;78.21
62952;BME280;52163;52.212;-1.002;2023-05-01T08:28:45;100589.70;;;15.61;77.37
62952;BME280;52163;52.212;-1.002;2023-05-01T08:31:11;100591.59;;;15.76;76.46
62952;BME280;52163;52.212;-1.002;2023-05-01T08:33:37;100585.23;;;15.86;75.71
62952;BME280;52163;52.212;-1.002;2023-05-01T08:36:02;100589.34;;;15.93;74.70
62952;BME280;52163;52.212;-1.002;2023-05-01T08:38:27;100589.08;;;15.98;74.33
62952;BME280;52163;52.212;-1.002;2023-05-01T08:40:53;100591.15;;;16.12;73.85
62952;BME280;52163;52.212;-1.002;2023-05-01T08:43:21;100598.67;;;16.32;72.60
62952;BME280;52163;52.212;-1.002;2023-05-01T08:45:46;100597.77;;;16.44;72.31
62952;BME280;52163;52.212;-1.002;2023-05-01T08:48:12;100599.20;;;16.44;71.64
62952;BME280;52163;52.212;-1.002;2023-05-01T08:50:40;100602.13;;;16.39;71.71
62952;BME280;52163;52.212;-1.002;2023-05-01T08:53:09;100600.68;;;16.35;71.41
62952;BME280;52163;52.212;-1.002;2023-05-01T08:55:36;100604.02;;;16.31;70.63
62952;BME280;52163;52.212;-1.002;2023-05-01T08:58:03;100608.92;;;16.35;70.26
62952;BME280;52163;52.212;-1.002;2023-05-01T09:00:34;100612.04;;;16.38;69.80
62952;BME280;52163;52.212;-1.002;2023-05-01T09:03:00;100614.11;;;16.32;69.55
62952;BME280;52163;52.212;-1.002;2023-05-01T09:05:26;100617.13;;;16.30;69.61
62952;BME280;52163;52.212;-1.002;2023-05-01T09:07:52;100620.86;;;16.35;69.54
62952;BME280;52163;52.212;-1.002;2023-05-01T09:10:18;100617.54;;;16.40;69.59
62952;BME280;52163;52.212;-1.002;2023-05-01T09:12:44;100622.14;;;16.54;69.95
62952;BME280;52163;52.212;-1.002;2023-05-01T09:15:11;100620.73;;;16.71;69.20
62952;BME280;52163;52.212;-1.002;2023-05-01T09:17:37;100625.77;;;16.74;68.84
62952;BME280;52163;52.212;-1.002;2023-05-01T09:20:03;100629.57;;;16.65;68.54
62952;BME280;52163;52.212;-1.002;2023-05-01T09:22:32;100635.98;;;16.57;68.28
62952;BME280;52163;52.212;-1.002;2023-05-01T09:24:57;100635.44;;;16.57;68.58
62952;BME280;52163;52.212;-1.002;2023-05-01T09:27:23;100634.69;;;16.64;68.42
62952;BME280;52163;52.212;-1.002;2023-05-01T09:29:49;100631.83;;;16.70;68.67
62952;BME280;52163;52.212;-1.002;2023-05-01T09:34:44;100636.77;;;16.88;67.46
62952;BME280;52163;52.212;-1.002;2023-05-01T09:40:15;100641.33;;;16.89;66.87
62952;BME280;52163;52.212;-1.002;2023-05-01T09:42:46;100642.64;;;16.94;66.45
62952;BME280;52163;52.212;-1.002;2023-05-01T09:45:12;100646.34;;;17.07;66.26
62952;BME280;52163;52.212;-1.002;2023-05-01T09:47:39;100649.53;;;17.21;66.40
62952;BME280;52163;52.212;-1.002;2023-05-01T09:50:05;100645.33;;;17.28;66.15
62952;BME280;52163;52.212;-1.002;2023-05-01T09:52:30;100646.80;;;17.34;65.62
62952;BME280;52163;52.212;-1.002;2023-05-01T09:55:16;100645.50;;;17.40;65.25
62952;BME280;52163;52.212;-1.002;2023-05-01T09:57:43;100646.70;;;17.47;65.01
